createdAt,value
2019-05-19T00:00:55.107Z,9.03
2019-05-19T00:03:25.686Z,9.25
2019-05-19T00:05:56.204Z,9.23
2019-05-19T00:08:26.761Z,9.43
2019-05-19T00:10:57.336Z,9.95
2019-05-19T00:13:28.110Z,10.20
2019-05-19T00:15:58.668Z,10.65
2019-05-19T00:18:29.378Z,10.30
2019-05-19T00:20:59.918Z,9.78
2019-05-19T00:23:30.467Z,9.35
2019-05-19T00:26:01.183Z,9.98
2019-05-19T00:28:31.809Z,9.45
2019-05-19T00:31:02.348Z,9.15
2019-05-19T00:33:32.943Z,9.10
2019-05-19T00:36:03.687Z,8.80
2019-05-19T00:38:34.295Z,8.63
2019-05-19T00:41:04.860Z,9.55
2019-05-19T00:43:35.389Z,8.85
2019-05-19T00:46:06.143Z,9.23
2019-05-19T00:48:38.470Z,9.23
2019-05-19T00:51:09.919Z,9.08
2019-05-19T00:53:40.456Z,8.78
2019-05-19T00:56:11.362Z,9.25
2019-05-19T00:58:43.471Z,8.30
2019-05-19T01:01:14.085Z,9.00
2019-05-19T01:03:44.624Z,8.90
2019-05-19T01:06:15.198Z,8.28
2019-05-19T01:08:45.836Z,8.58
2019-05-19T01:11:16.414Z,8.68
2019-05-19T01:13:46.919Z,9.05
2019-05-19T01:16:18.687Z,7.95
2019-05-19T01:18:49.359Z,8.28
2019-05-19T01:21:21.118Z,8.65
2019-05-19T01:23:51.749Z,8.83
2019-05-19T01:26:22.325Z,8.08
2019-05-19T01:28:52.857Z,8.70
2019-05-19T01:31:23.445Z,8.93
2019-05-19T01:33:53.958Z,8.48
2019-05-19T01:36:24.517Z,8.95
2019-05-19T01:38:56.166Z,8.68
2019-05-19T01:41:26.747Z,8.30
2019-05-19T01:43:57.296Z,9.05
2019-05-19T01:46:28.095Z,9.03
2019-05-19T01:48:58.624Z,9.13
2019-05-19T01:51:29.173Z,9.18
2019-05-19T01:53:59.704Z,9.23
2019-05-19T01:56:31.793Z,8.73
2019-05-19T01:59:03.680Z,9.03
2019-05-19T02:01:34.316Z,8.78
2019-05-19T02:04:04.977Z,8.73
2019-05-19T02:06:35.566Z,8.85
2019-05-19T02:09:07.616Z,8.95
2019-05-19T02:11:38.190Z,8.95
2019-05-19T02:14:08.955Z,10.10
2019-05-19T02:16:39.508Z,10.50
2019-05-19T02:19:10.064Z,10.18
2019-05-19T02:21:40.715Z,10.20
2019-05-19T02:24:11.236Z,9.15
2019-05-19T02:26:41.785Z,9.80
2019-05-19T02:29:12.403Z,9.33
2019-05-19T02:31:43.077Z,9.38
2019-05-19T02:34:13.615Z,10.23
2019-05-19T02:36:44.185Z,9.48
2019-05-19T02:39:14.731Z,9.48
2019-05-19T02:41:49.146Z,9.18
2019-05-19T02:44:20.673Z,9.15
2019-05-19T02:46:53.795Z,9.43
2019-05-19T02:49:28.596Z,9.68
2019-05-19T02:52:01.764Z,9.13
2019-05-19T02:54:34.431Z,9.63
2019-05-19T02:57:06.424Z,9.18
2019-05-19T02:59:37.638Z,9.25
2019-05-19T03:02:12.496Z,8.50
2019-05-19T03:04:43.003Z,9.28
2019-05-19T03:07:15.049Z,8.78
2019-05-19T03:09:45.565Z,9.30
2019-05-19T03:12:17.109Z,9.03
2019-05-19T03:14:47.677Z,9.30
2019-05-19T03:17:18.252Z,9.43
2019-05-19T03:19:48.805Z,9.18
2019-05-19T03:22:19.463Z,8.88
2019-05-19T03:24:50.028Z,9.05
2019-05-19T03:27:20.611Z,9.40
2019-05-19T03:29:55.789Z,8.85
2019-05-19T03:32:32.715Z,9.28
2019-05-19T03:35:03.425Z,9.55
2019-05-19T03:37:33.947Z,9.45
2019-05-19T03:40:06.648Z,8.70
2019-05-19T03:42:37.218Z,8.98
2019-05-19T03:45:07.938Z,9.18
2019-05-19T03:47:38.479Z,8.85
2019-05-19T03:50:09.024Z,9.18
2019-05-19T03:52:39.792Z,9.95
2019-05-19T03:55:10.707Z,9.48
2019-05-19T03:57:43.612Z,9.05
2019-05-19T04:00:14.840Z,9.77
2019-05-19T04:02:45.447Z,8.93
2019-05-19T04:05:15.978Z,10.53
2019-05-19T04:07:46.540Z,9.80
2019-05-19T04:10:17.801Z,9.68
2019-05-19T04:12:48.360Z,9.50
2019-05-19T04:15:18.889Z,9.80
2019-05-19T04:17:49.466Z,9.00
2019-05-19T04:20:20.119Z,9.80
2019-05-19T04:22:50.673Z,9.78
2019-05-19T04:25:21.384Z,9.70
2019-05-19T04:27:51.927Z,9.75
2019-05-19T04:30:22.551Z,9.77
2019-05-19T04:32:53.111Z,9.33
2019-05-19T04:35:23.735Z,9.98
2019-05-19T04:37:54.382Z,9.48
2019-05-19T04:40:24.895Z,10.70
2019-05-19T04:42:55.589Z,10.03
2019-05-19T04:45:26.148Z,10.00
2019-05-19T04:47:59.958Z,10.20
2019-05-19T04:50:31.518Z,10.50
2019-05-19T04:53:02.078Z,11.08
2019-05-19T04:55:32.677Z,11.43
2019-05-19T04:58:03.291Z,12.50
2019-05-19T05:00:33.824Z,11.70
2019-05-19T05:03:04.418Z,12.37
2019-05-19T05:05:35.001Z,12.75
2019-05-19T05:08:05.561Z,12.07
2019-05-19T05:10:37.234Z,12.33
2019-05-19T05:13:08.894Z,12.93
2019-05-19T05:15:39.440Z,12.35
2019-05-19T05:18:10.069Z,11.68
2019-05-19T05:20:40.622Z,13.15
2019-05-19T05:23:11.200Z,11.12
2019-05-19T05:25:41.749Z,15.28
2019-05-19T05:28:12.354Z,13.43
2019-05-19T05:30:42.929Z,11.83
2019-05-19T05:33:20.602Z,12.10
2019-05-19T05:36:06.697Z,11.83
2019-05-19T05:38:38.007Z,13.18
2019-05-19T05:41:23.266Z,12.95
2019-05-19T05:44:08.623Z,14.58
2019-05-19T05:46:52.771Z,16.93
2019-05-19T05:49:34.455Z,12.43
2019-05-19T05:52:19.339Z,14.80
2019-05-19T05:54:50.306Z,13.30
2019-05-19T05:57:25.163Z,13.85
2019-05-19T05:59:55.721Z,12.78
2019-05-19T06:02:27.469Z,13.68
2019-05-19T06:04:58.045Z,14.90
2019-05-19T06:07:38.454Z,14.20
2019-05-19T06:10:10.020Z,11.38
2019-05-19T06:12:40.612Z,11.83
2019-05-19T06:15:11.654Z,13.80
2019-05-19T06:17:42.289Z,15.08
2019-05-19T06:20:12.953Z,12.28
2019-05-19T06:22:55.724Z,13.28
2019-05-19T06:25:16.215Z,12.70
2019-05-19T06:27:46.789Z,11.55
2019-05-19T06:30:17.512Z,12.90
2019-05-19T06:32:51.197Z,10.72
2019-05-19T06:35:22.841Z,9.98
2019-05-19T06:37:53.432Z,10.50
2019-05-19T06:40:23.980Z,10.30
2019-05-19T06:42:54.557Z,9.63
2019-05-19T06:45:25.098Z,9.60
2019-05-19T06:48:14.715Z,8.98
2019-05-19T06:50:45.323Z,9.70
2019-05-19T06:53:15.954Z,9.50
2019-05-19T06:55:46.622Z,9.68
2019-05-19T06:58:17.258Z,8.38
2019-05-19T07:00:47.925Z,8.75
2019-05-19T07:03:18.602Z,8.65
2019-05-19T07:05:49.138Z,9.65
2019-05-19T07:08:19.708Z,8.05
2019-05-19T07:10:50.242Z,8.38
2019-05-19T07:13:20.805Z,8.30
2019-05-19T07:15:51.433Z,8.60
2019-05-19T07:18:22.019Z,8.15
2019-05-19T07:20:52.558Z,7.40
2019-05-19T07:23:28.244Z,7.90
2019-05-19T07:25:55.430Z,6.10
2019-05-19T07:28:27.212Z,7.33
2019-05-19T07:30:57.784Z,7.62
2019-05-19T07:33:28.399Z,6.92
2019-05-19T07:35:58.931Z,7.50
2019-05-19T07:38:29.471Z,7.75
2019-05-19T07:41:00.333Z,7.90
2019-05-19T07:43:31.025Z,7.15
2019-05-19T07:46:01.588Z,7.12
2019-05-19T07:48:32.232Z,7.78
2019-05-19T07:51:03.010Z,7.83
2019-05-19T07:53:42.555Z,7.45
2019-05-19T07:56:07.748Z,6.58
2019-05-19T07:58:39.810Z,6.92
2019-05-19T08:01:10.378Z,8.25
2019-05-19T08:03:40.906Z,7.15
2019-05-19T08:06:11.567Z,6.90
2019-05-19T08:08:42.092Z,7.25
2019-05-19T08:11:12.674Z,7.90
2019-05-19T08:13:43.333Z,8.10
2019-05-19T08:16:13.988Z,6.53
2019-05-19T08:18:44.545Z,5.97
2019-05-19T08:21:15.127Z,6.67
2019-05-19T08:23:59.753Z,7.45
2019-05-19T08:26:19.232Z,5.78
2019-05-19T08:28:49.969Z,7.22
2019-05-19T08:31:22.015Z,7.15
2019-05-19T08:33:52.597Z,6.78
2019-05-19T08:36:24.421Z,6.92
2019-05-19T08:38:54.951Z,6.78
2019-05-19T08:41:44.583Z,7.20
2019-05-19T08:44:15.168Z,6.60
2019-05-19T08:46:45.714Z,6.70
2019-05-19T08:49:16.438Z,6.42
2019-05-19T08:51:47.041Z,6.87
2019-05-19T08:54:19.066Z,6.75
2019-05-19T08:56:50.042Z,7.12
2019-05-19T08:59:22.498Z,6.87
2019-05-19T09:01:53.215Z,7.50
2019-05-19T09:04:24.826Z,7.42
2019-05-19T09:06:56.863Z,7.30
2019-05-19T09:09:27.604Z,6.37
2019-05-19T09:11:59.988Z,7.17
2019-05-19T09:14:30.611Z,6.87
2019-05-19T09:17:01.617Z,6.35
2019-05-19T09:19:32.325Z,6.10
2019-05-19T09:22:02.948Z,6.80
2019-05-19T09:24:33.466Z,6.50
2019-05-19T09:27:04.037Z,7.10
2019-05-19T09:29:34.676Z,6.22
2019-05-19T09:32:05.355Z,6.35
2019-05-19T09:34:36.016Z,7.37
2019-05-19T09:37:06.625Z,7.25
2019-05-19T09:39:37.325Z,6.90
2019-05-19T09:42:07.912Z,6.83
2019-05-19T09:44:38.467Z,6.35
2019-05-19T09:47:09.112Z,5.95
2019-05-19T09:49:39.648Z,5.85
2019-05-19T09:52:16.817Z,7.25
2019-05-19T09:54:45.547Z,5.95
2019-05-19T09:57:16.312Z,6.97
2019-05-19T09:59:46.837Z,7.15
2019-05-19T10:02:18.951Z,7.30
2019-05-19T10:04:49.594Z,6.70
2019-05-19T10:07:20.170Z,6.22
2019-05-19T10:10:15.320Z,7.28
2019-05-19T10:12:45.902Z,6.40
2019-05-19T10:15:16.663Z,6.33
2019-05-19T10:17:47.199Z,6.08
2019-05-19T10:20:19.667Z,6.47
2019-05-19T10:22:50.390Z,7.12
2019-05-19T10:25:22.933Z,7.10
2019-05-19T10:27:53.579Z,6.53
2019-05-19T10:30:26.046Z,6.80
2019-05-19T10:32:58.724Z,6.67
2019-05-19T10:35:28.893Z,7.58
2019-05-19T10:37:59.767Z,7.40
2019-05-19T10:40:30.374Z,6.95
2019-05-19T10:43:00.932Z,8.10
2019-05-19T10:45:31.842Z,7.47
2019-05-19T10:48:02.381Z,7.22
2019-05-19T10:50:32.954Z,12.03
2019-05-19T10:53:03.535Z,15.78
2019-05-19T10:55:36.863Z,10.08
2019-05-19T10:58:06.466Z,9.35
2019-05-19T11:00:37.027Z,7.37
2019-05-19T11:03:08.711Z,7.55
2019-05-19T11:05:39.340Z,6.15
2019-05-19T11:08:09.925Z,6.10
2019-05-19T11:10:40.637Z,5.75
2019-05-19T11:13:11.285Z,5.83
2019-05-19T11:15:41.852Z,6.10
2019-05-19T11:18:13.871Z,5.62
2019-05-19T11:20:44.433Z,6.12
2019-05-19T11:23:15.021Z,6.58
2019-05-19T11:25:51.526Z,6.53
2019-05-19T11:28:17.905Z,6.40
2019-05-19T11:30:48.504Z,5.95
2019-05-19T11:33:19.186Z,5.72
2019-05-19T11:35:49.735Z,5.42
2019-05-19T11:38:20.297Z,5.85
2019-05-19T11:40:50.921Z,5.87
2019-05-19T11:43:21.523Z,4.92
2019-05-19T11:45:52.196Z,5.73
2019-05-19T11:48:22.808Z,6.05
2019-05-19T11:50:53.385Z,5.50
2019-05-19T11:53:23.926Z,5.87
2019-05-19T11:56:06.168Z,5.17
2019-05-19T11:58:26.929Z,5.12
2019-05-19T12:00:57.702Z,6.05
2019-05-19T12:03:30.041Z,6.00
2019-05-19T12:06:00.602Z,5.62
2019-05-19T12:08:31.236Z,5.37
2019-05-19T12:11:02.137Z,5.47
2019-05-19T12:13:34.986Z,5.33
2019-05-19T12:16:05.143Z,5.37
2019-05-19T12:18:36.818Z,5.60
2019-05-19T12:21:26.451Z,5.45
2019-05-19T12:23:57.231Z,4.35
2019-05-19T12:26:28.370Z,4.53
2019-05-19T12:29:18.513Z,4.58
2019-05-19T12:31:50.978Z,5.20
2019-05-19T12:34:21.707Z,4.90
2019-05-19T12:36:52.289Z,4.85
2019-05-19T12:39:24.749Z,4.80
2019-05-19T12:41:55.326Z,4.75
2019-05-19T12:44:25.919Z,4.92
2019-05-19T12:46:57.950Z,5.28
2019-05-19T12:49:29.941Z,5.28
2019-05-19T12:52:00.565Z,4.72
2019-05-19T12:54:31.207Z,5.30
2019-05-19T12:57:01.929Z,5.10
2019-05-19T12:59:32.601Z,4.58
2019-05-19T13:02:03.256Z,4.25
2019-05-19T13:04:34.067Z,4.60
2019-05-19T13:07:04.630Z,4.33
2019-05-19T13:09:35.335Z,4.30
2019-05-19T13:12:07.368Z,4.60
2019-05-19T13:14:39.868Z,4.58
2019-05-19T13:17:10.439Z,4.55
2019-05-19T13:19:41.142Z,4.60
2019-05-19T13:22:12.660Z,5.10
2019-05-19T13:24:43.246Z,5.10
2019-05-19T13:27:13.829Z,4.67
2019-05-19T13:29:44.668Z,4.17
2019-05-19T13:32:17.081Z,4.55
2019-05-19T13:34:47.766Z,4.35
2019-05-19T13:37:18.318Z,4.55
2019-05-19T13:39:48.864Z,3.98
2019-05-19T13:42:19.474Z,4.10
2019-05-19T13:44:51.154Z,3.92
2019-05-19T13:47:22.126Z,4.37
2019-05-19T13:49:52.872Z,4.12
2019-05-19T13:52:24.575Z,4.20
2019-05-19T13:54:56.984Z,4.42
2019-05-19T13:57:30.451Z,3.85
2019-05-19T14:00:01.159Z,4.45
2019-05-19T14:02:31.873Z,4.03
2019-05-19T14:05:02.633Z,4.15
2019-05-19T14:07:33.198Z,4.28
2019-05-19T14:10:04.218Z,4.20
2019-05-19T14:12:34.829Z,3.98
2019-05-19T14:15:06.986Z,3.83
2019-05-19T14:17:37.604Z,3.85
2019-05-19T14:20:08.873Z,4.22
2019-05-19T14:22:39.623Z,3.45
2019-05-19T14:25:10.639Z,3.92
2019-05-19T14:27:41.288Z,3.55
2019-05-19T14:30:12.019Z,3.70
2019-05-19T14:32:44.518Z,4.08
2019-05-19T14:35:16.148Z,3.35
2019-05-19T14:37:46.760Z,3.50
2019-05-19T14:40:19.386Z,4.12
2019-05-19T14:42:54.221Z,3.50
2019-05-19T14:45:24.845Z,3.90
2019-05-19T14:47:57.671Z,3.77
2019-05-19T14:50:28.445Z,3.33
2019-05-19T14:52:59.051Z,4.22
2019-05-19T14:55:29.732Z,3.95
2019-05-19T14:58:00.387Z,4.12
2019-05-19T15:00:30.923Z,4.00
2019-05-19T15:03:02.043Z,3.72
2019-05-19T15:05:32.624Z,3.85
2019-05-19T15:08:03.247Z,3.58
2019-05-19T15:10:36.350Z,3.85
2019-05-19T15:13:07.469Z,3.72
2019-05-19T15:15:38.216Z,3.80
2019-05-19T15:18:09.090Z,3.40
2019-05-19T15:20:39.718Z,4.00
2019-05-19T15:23:10.324Z,3.95
2019-05-19T15:25:40.927Z,3.40
2019-05-19T15:28:11.713Z,3.40
2019-05-19T15:30:42.324Z,3.87
2019-05-19T15:33:12.940Z,3.52
2019-05-19T15:35:46.803Z,3.17
2019-05-19T15:38:17.423Z,3.25
2019-05-19T15:40:53.285Z,3.22
2019-05-19T15:43:24.240Z,2.85
2019-05-19T15:45:58.363Z,2.72
2019-05-19T15:48:28.939Z,3.17
2019-05-19T15:50:59.588Z,3.10
2019-05-19T15:53:30.169Z,3.25
2019-05-19T15:56:00.731Z,2.95
2019-05-19T15:58:31.469Z,3.05
2019-05-19T16:01:02.036Z,2.98
2019-05-19T16:03:32.994Z,2.80
2019-05-19T16:06:03.550Z,3.37
2019-05-19T16:08:34.190Z,2.90
2019-05-19T16:11:04.787Z,3.12
2019-05-19T16:13:35.442Z,3.10
2019-05-19T16:16:06.012Z,2.70
2019-05-19T16:18:36.657Z,2.65
2019-05-19T16:21:08.407Z,3.08
2019-05-19T16:23:38.953Z,3.12
2019-05-19T16:26:09.533Z,3.00
2019-05-19T16:28:40.179Z,2.80
2019-05-19T16:31:11.976Z,2.80
2019-05-19T16:33:42.581Z,3.08
2019-05-19T16:36:13.165Z,3.02
2019-05-19T16:38:43.753Z,2.60
2019-05-19T16:41:14.287Z,2.90
2019-05-19T16:43:44.921Z,2.50
2019-05-19T16:46:15.481Z,2.90
2019-05-19T16:48:47.517Z,2.58
2019-05-19T16:51:18.165Z,2.92
2019-05-19T16:53:50.962Z,2.37
2019-05-19T16:56:21.570Z,2.87
2019-05-19T16:58:52.211Z,2.72
2019-05-19T17:01:22.812Z,2.20
2019-05-19T17:03:53.394Z,2.40
2019-05-19T17:06:24.079Z,2.22
2019-05-19T17:08:54.683Z,1.90
2019-05-19T17:11:25.274Z,2.02
2019-05-19T17:13:55.974Z,1.85
2019-05-19T17:16:26.519Z,2.30
2019-05-19T17:18:57.124Z,1.80
2019-05-19T17:21:27.694Z,2.20
2019-05-19T17:23:58.420Z,2.00
2019-05-19T17:26:28.987Z,2.15
2019-05-19T17:29:00.862Z,1.95
2019-05-19T17:31:32.477Z,2.12
2019-05-19T17:34:03.205Z,2.05
2019-05-19T17:36:34.594Z,2.10
2019-05-19T17:39:07.183Z,2.20
2019-05-19T17:41:37.753Z,2.27
2019-05-19T17:44:08.316Z,2.33
2019-05-19T17:46:38.900Z,1.95
2019-05-19T17:49:09.506Z,2.30
2019-05-19T17:51:40.112Z,2.10
2019-05-19T17:54:10.659Z,2.27
2019-05-19T17:56:42.677Z,2.15
2019-05-19T17:59:32.701Z,1.98
2019-05-19T18:02:03.324Z,1.77
2019-05-19T18:04:33.985Z,2.05
2019-05-19T18:07:04.541Z,2.00
2019-05-19T18:09:35.347Z,2.05
2019-05-19T18:12:05.907Z,2.00
2019-05-19T18:14:36.615Z,2.10
2019-05-19T18:17:07.186Z,2.17
2019-05-19T18:19:37.837Z,2.27
2019-05-19T18:22:10.196Z,2.10
2019-05-19T18:24:40.768Z,2.10
2019-05-19T18:27:11.295Z,2.33
2019-05-19T18:29:43.695Z,2.27
2019-05-19T18:32:15.463Z,1.98
2019-05-19T18:34:46.143Z,2.33
2019-05-19T18:37:16.665Z,2.27
2019-05-19T18:39:47.335Z,2.35
2019-05-19T18:42:20.448Z,2.15
2019-05-19T18:44:50.179Z,2.08
2019-05-19T18:47:20.752Z,2.67
2019-05-19T18:49:51.287Z,2.40
2019-05-19T18:52:21.990Z,2.45
2019-05-19T18:54:52.575Z,2.47
2019-05-19T18:57:23.171Z,2.37
2019-05-19T18:59:55.209Z,2.40
2019-05-19T19:02:25.968Z,2.17
2019-05-19T19:04:56.773Z,2.65
2019-05-19T19:07:46.335Z,2.45
2019-05-19T19:10:18.935Z,2.47
2019-05-19T19:12:49.728Z,2.67
2019-05-19T19:15:20.359Z,2.30
2019-05-19T19:17:51.138Z,2.95
2019-05-19T19:20:21.937Z,2.60
2019-05-19T19:22:53.595Z,3.40
2019-05-19T19:25:24.132Z,3.30
2019-05-19T19:27:54.807Z,3.12
2019-05-19T19:30:26.651Z,2.80
2019-05-19T19:32:57.323Z,2.55
2019-05-19T19:35:38.334Z,2.70
2019-05-19T19:38:00.326Z,2.90
2019-05-19T19:40:32.032Z,3.12
2019-05-19T19:43:03.260Z,2.95
2019-05-19T19:45:33.984Z,2.90
2019-05-19T19:48:04.765Z,2.95
2019-05-19T19:50:35.679Z,2.90
2019-05-19T19:53:06.229Z,3.25
2019-05-19T19:55:36.771Z,3.27
2019-05-19T19:58:07.355Z,3.37
2019-05-19T20:00:43.347Z,2.85
2019-05-19T20:03:15.224Z,2.90
2019-05-19T20:05:45.817Z,3.12
2019-05-19T20:08:16.345Z,2.80
2019-05-19T20:10:46.876Z,3.17
2019-05-19T20:13:18.402Z,3.65
2019-05-19T20:15:49.083Z,3.60
2019-05-19T20:18:19.706Z,3.40
2019-05-19T20:20:50.230Z,3.52
2019-05-19T20:23:20.893Z,3.65
2019-05-19T20:25:51.470Z,4.62
2019-05-19T20:28:22.029Z,5.00
2019-05-19T20:30:52.622Z,5.40
2019-05-19T20:33:23.182Z,5.95
2019-05-19T20:35:53.724Z,5.50
2019-05-19T20:38:24.274Z,5.53
2019-05-19T20:40:54.952Z,4.60
2019-05-19T20:43:25.534Z,4.90
2019-05-19T20:45:56.067Z,5.20
2019-05-19T20:48:28.216Z,4.72
2019-05-19T20:50:58.737Z,4.95
2019-05-19T20:53:29.309Z,4.40
2019-05-19T20:55:59.852Z,4.58
2019-05-19T20:58:30.439Z,4.47
2019-05-19T21:01:00.990Z,3.70
2019-05-19T21:03:31.673Z,4.28
2019-05-19T21:06:02.203Z,4.17
2019-05-19T21:08:32.778Z,4.30
2019-05-19T21:11:03.677Z,4.55
2019-05-19T21:13:34.371Z,4.42
2019-05-19T21:16:06.396Z,4.22
2019-05-19T21:18:37.081Z,4.58
2019-05-19T21:21:07.594Z,4.50
2019-05-19T21:23:38.169Z,5.03
2019-05-19T21:26:08.698Z,4.50
2019-05-19T21:28:39.301Z,4.70
2019-05-19T21:31:09.820Z,4.55
2019-05-19T21:33:40.404Z,4.58
2019-05-19T21:36:11.127Z,4.37
2019-05-19T21:38:41.785Z,4.17
2019-05-19T21:41:12.342Z,3.95
2019-05-19T21:43:42.957Z,3.80
2019-05-19T21:46:13.481Z,4.10
2019-05-19T21:48:44.113Z,4.60
2019-05-19T21:51:14.718Z,3.62
2019-05-19T21:53:46.489Z,3.52
2019-05-19T21:56:18.126Z,3.67
2019-05-19T21:58:48.711Z,3.90
2019-05-19T22:01:23.073Z,3.52
2019-05-19T22:03:51.920Z,3.83
2019-05-19T22:06:24.104Z,3.45
2019-05-19T22:08:54.662Z,3.72
2019-05-19T22:11:26.763Z,3.85
2019-05-19T22:13:57.352Z,4.10
2019-05-19T22:16:27.945Z,3.95
2019-05-19T22:18:58.528Z,3.47
2019-05-19T22:21:29.071Z,4.35
2019-05-19T22:23:59.636Z,3.72
2019-05-19T22:26:30.205Z,4.17
2019-05-19T22:29:00.889Z,3.98
2019-05-19T22:31:36.893Z,3.40
2019-05-19T22:34:03.762Z,3.90
2019-05-19T22:36:34.383Z,3.40
2019-05-19T22:39:06.662Z,3.80
2019-05-19T22:41:37.238Z,3.30
2019-05-19T22:44:07.798Z,3.55
2019-05-19T22:46:38.318Z,3.90
2019-05-19T22:49:10.013Z,3.70
2019-05-19T22:51:40.541Z,3.75
2019-05-19T22:54:12.716Z,3.98
2019-05-19T22:56:43.273Z,3.83
2019-05-19T22:59:19.809Z,3.98
2019-05-19T23:01:51.812Z,4.55
2019-05-19T23:04:18.335Z,3.90
2019-05-19T23:06:48.916Z,4.30
2019-05-19T23:09:19.467Z,4.20
2019-05-19T23:11:50.031Z,4.30
2019-05-19T23:14:20.599Z,3.75
2019-05-19T23:16:51.141Z,4.10
2019-05-19T23:19:21.726Z,4.17
2019-05-19T23:21:54.053Z,3.70
2019-05-19T23:24:24.612Z,4.10
2019-05-19T23:26:55.143Z,4.30
2019-05-19T23:29:25.685Z,3.92
2019-05-19T23:32:06.660Z,3.60
2019-05-19T23:34:28.623Z,4.05
2019-05-19T23:36:59.160Z,3.85
2019-05-19T23:39:29.713Z,4.05
2019-05-19T23:42:00.260Z,4.03
2019-05-19T23:44:30.942Z,4.30
2019-05-19T23:47:01.514Z,3.40
2019-05-19T23:49:33.093Z,3.90
2019-05-19T23:52:03.617Z,3.77
2019-05-19T23:54:34.198Z,4.22
2019-05-19T23:57:06.356Z,3.80
2019-05-19T23:59:36.914Z,3.95
